Time;durP1;ratioP1;P1;durP2;ratioP2;P2;SDS_P1;SDS_P2;PMS_P1;PMS_P2;Temp;Humidity;BMP_temperature;BMP_pressure;BME280_temperature;BME280_humidity;BME280_pressure;Samples;Min_cycle;Max_cycle;Signal;HPM_P1;HPM_P2
2023/05/28 00:06:26;;;;;;;12.83;2.87;;;21.70;99.90;;;;;;5013520;28;20180;-77
2023/05/28 00:08:53;;;;;;;11.13;2.70;;;21.80;99.90;;;;;;5016698;28;20192;-77
2023/05/28 00:11:20;;;;;;;16.67;2.83;;;21.80;99.90;;;;;;5025541;28;20192;-77
2023/05/28 00:13:49;;;;;;;13.57;3.37;;;21.70;99.90;;;;;;5025626;28;20206;-77
2023/05/28 00:16:15;;;;;;;18.23;3.17;;;21.70;99.90;;;;;;5020862;28;20188;-77
2023/05/28 00:18:42;;;;;;;14.47;3.43;;;21.70;99.90;;;;;;5017206;28;20263;-77
2023/05/28 00:21:08;;;;;;;10.97;2.93;;;21.70;99.90;;;;;;5008647;28;20196;-76
2023/05/28 00:23:34;;;;;;;13.77;3.13;;;21.70;99.90;;;;;;5014809;28;20730;-76
2023/05/28 00:26:00;;;;;;;14.97;3.60;;;21.60;99.90;;;;;;4990595;28;20850;-76
2023/05/28 00:28:28;;;;;;;14.77;3.13;;;21.60;99.90;;;;;;4992137;28;20185;-76
2023/05/28 00:30:55;;;;;;;12.13;3.20;;;21.60;99.90;;;;;;5007429;28;20307;-76
2023/05/28 00:33:21;;;;;;;9.93;2.80;;;21.50;99.90;;;;;;5007734;28;20903;-76
2023/05/28 00:35:49;;;;;;;16.57;3.80;;;21.60;99.90;;;;;;5009485;28;20180;-76
2023/05/28 00:38:16;;;;;;;13.40;3.13;;;21.60;99.90;;;;;;5009805;28;20196;-76
2023/05/28 00:40:45;;;;;;;11.13;3.10;;;21.60;99.90;;;;;;5013735;28;20184;-77
2023/05/28 00:43:11;;;;;;;13.20;3.47;;;21.60;99.90;;;;;;5012120;28;20196;-77
2023/05/28 00:45:37;;;;;;;12.20;3.60;;;21.50;99.90;;;;;;5011842;28;20192;-77
2023/05/28 00:48:04;;;;;;;14.10;3.20;;;21.50;99.90;;;;;;5014182;28;20241;-77
2023/05/28 00:50:31;;;;;;;17.37;3.53;;;21.60;99.90;;;;;;5012958;28;20246;-77
2023/05/28 00:52:58;;;;;;;17.43;3.20;;;21.50;99.90;;;;;;5012186;28;20192;-77
2023/05/28 00:55:25;;;;;;;13.10;3.90;;;21.50;99.90;;;;;;4996451;28;20196;-77
2023/05/28 00:57:54;;;;;;;18.80;3.47;;;21.50;99.90;;;;;;5012411;28;20324;-77
2023/05/28 01:00:21;;;;;;;18.13;3.80;;;21.50;99.90;;;;;;5010701;28;20823;-77
2023/05/28 01:02:47;;;;;;;15.23;3.87;;;21.50;99.90;;;;;;5014229;28;20224;-77
2023/05/28 01:05:14;;;;;;;18.33;3.90;;;21.50;99.90;;;;;;5030040;28;20903;-77
2023/05/28 01:07:40;;;;;;;13.17;4.07;;;21.40;99.90;;;;;;5014667;28;20189;-77
2023/05/28 01:10:07;;;;;;;26.80;4.93;;;21.40;99.90;;;;;;5041554;28;20196;-77
2023/05/28 01:12:36;;;;;;;17.33;4.33;;;21.40;99.90;;;;;;5013221;28;20199;-76
2023/05/28 01:15:03;;;;;;;21.93;5.10;;;21.30;99.90;;;;;;5015383;28;20219;-76
2023/05/28 01:17:31;;;;;;;27.03;5.13;;;21.30;99.90;;;;;;4997242;28;20193;-76
2023/05/28 01:19:57;;;;;;;32.70;5.90;;;21.40;99.90;;;;;;5024381;28;20287;-76
2023/05/28 01:22:29;;;;;;;19.13;4.37;;;21.40;99.90;;;;;;5010089;28;20208;-76
2023/05/28 01:24:56;;;;;;;26.87;5.30;;;21.30;99.90;;;;;;4999667;28;20243;-76
2023/05/28 01:27:23;;;;;;;25.63;5.67;;;21.40;99.90;;;;;;5037986;28;20192;-76
2023/05/28 01:29:49;;;;;;;32.10;5.37;;;21.40;99.90;;;;;;4994273;28;20181;-77
2023/05/28 01:32:15;;;;;;;24.37;4.73;;;21.30;99.90;;;;;;5010603;28;20203;-77
2023/05/28 01:34:41;;;;;;;27.50;5.27;;;21.30;99.90;;;;;;5016108;28;20223;-76
2023/05/28 01:37:11;;;;;;;30.50;5.50;;;21.30;99.90;;;;;;5012423;28;20268;-76
2023/05/28 01:39:44;;;;;;;28.70;5.90;;;21.30;99.90;;;;;;5014502;28;20687;-76
2023/05/28 01:42:12;;;;;;;31.83;5.80;;;21.30;99.90;;;;;;5020954;28;20200;-76
2023/05/28 01:44:41;;;;;;;33.33;6.07;;;21.20;99.90;;;;;;5010860;28;20211;-76
2023/05/28 01:47:09;;;;;;;29.03;5.67;;;21.20;99.90;;;;;;5010172;28;20723;-76
2023/05/28 01:49:38;;;;;;;30.73;5.90;;;21.20;99.90;;;;;;5038515;28;20224;-76
2023/05/28 01:52:06;;;;;;;33.37;5.93;;;21.20;99.90;;;;;;5021503;28;20295;-76
2023/05/28 01:54:32;;;;;;;45.10;6.30;;;21.20;99.90;;;;;;5013039;28;20199;-76
2023/05/28 01:56:59;;;;;;;35.73;6.27;;;21.20;99.90;;;;;;5010924;28;20325;-76
2023/05/28 01:59:25;;;;;;;39.73;6.53;;;21.20;99.90;;;;;;5040749;28;20605;-76
2023/05/28 02:01:52;;;;;;;33.23;6.80;;;21.20;99.90;;;;;;5010405;28;20650;-76
2023/05/28 02:04:18;;;;;;;29.50;6.23;;;21.30;99.90;;;;;;5012549;28;20189;-76
2023/05/28 02:06:46;;;;;;;44.77;7.07;;;21.30;99.90;;;;;;5012738;28;20646;-76
2023/05/28 02:09:12;;;;;;;46.67;8.20;;;21.40;99.90;;;;;;5013409;28;20231;-76
2023/05/28 02:11:39;;;;;;;32.27;7.70;;;21.40;99.90;;;;;;5012428;28;20188;-76
2023/05/28 02:14:05;;;;;;;39.40;7.20;;;21.40;99.90;;;;;;5011371;28;20184;-76
2023/05/28 02:16:31;;;;;;;35.30;6.87;;;21.50;99.90;;;;;;5013285;28;20682;-75
2023/05/28 02:18:59;;;;;;;39.93;6.40;;;21.50;99.90;;;;;;5007373;28;20574;-77
2023/05/28 02:21:25;;;;;;;29.57;5.97;;;21.60;99.90;;;;;;5027066;28;20865;-76
2023/05/28 02:23:51;;;;;;;26.63;6.17;;;21.60;99.90;;;;;;4994308;28;20201;-76
2023/05/28 02:26:18;;;;;;;33.13;5.97;;;21.70;99.90;;;;;;5036890;28;20198;-76
2023/05/28 02:28:44;;;;;;;32.30;6.30;;;21.70;99.90;;;;;;5015500;28;20203;-77
2023/05/28 02:31:11;;;;;;;32.57;6.50;;;21.70;99.90;;;;;;5012457;28;20531;-76
2023/05/28 02:33:41;;;;;;;37.77;6.30;;;21.70;99.90;;;;;;5013923;28;20220;-76
2023/05/28 02:36:12;;;;;;;34.80;6.37;;;21.70;99.90;;;;;;5014686;28;20244;-76
2023/05/28 02:38:40;;;;;;;34.00;6.50;;;21.80;99.90;;;;;;5014133;28;20188;-76
2023/05/28 02:41:06;;;;;;;29.07;5.90;;;21.70;99.90;;;;;;5009255;28;20209;-76
2023/05/28 02:43:33;;;;;;;30.33;6.43;;;21.70;99.90;;;;;;5011071;28;20197;-76
2023/05/28 02:45:59;;;;;;;33.53;6.30;;;21.70;99.90;;;;;;5010495;28;20188;-76
2023/05/28 02:48:26;;;;;;;29.93;6.03;;;21.70;99.90;;;;;;5013513;28;20652;-76
2023/05/28 02:50:52;;;;;;;32.30;6.13;;;21.80;99.90;;;;;;5018606;28;21819;-76
2023/05/28 02:53:21;;;;;;;31.07;6.47;;;21.70;99.90;;;;;;5013942;28;20279;-76
2023/05/28 02:55:48;;;;;;;39.60;5.90;;;21.70;99.90;;;;;;5012983;28;20200;-76
2023/05/28 02:58:15;;;;;;;34.83;6.70;;;21.70;99.90;;;;;;5011404;28;20200;-75
2023/05/28 03:00:42;;;;;;;28.93;6.50;;;21.70;99.90;;;;;;5016458;28;20249;-76
2023/05/28 03:03:08;;;;;;;25.50;5.97;;;21.70;99.90;;;;;;5012503;28;20200;-76
2023/05/28 03:05:35;;;;;;;24.07;6.37;;;21.70;99.90;;;;;;5008946;28;20223;-75
2023/05/28 03:08:01;;;;;;;34.43;5.53;;;21.70;99.90;;;;;;5008171;28;20276;-75
2023/05/28 03:10:28;;;;;;;31.57;6.97;;;21.70;99.90;;;;;;5008587;28;20184;-75
2023/05/28 03:12:54;;;;;;;30.43;5.70;;;21.60;99.90;;;;;;5008965;28;20277;-75
2023/05/28 03:15:20;;;;;;;32.97;6.37;;;21.60;99.90;;;;;;4987940;28;20196;-75
2023/05/28 03:17:46;;;;;;;31.20;7.20;;;21.70;99.90;;;;;;5006106;28;20187;-75
2023/05/28 03:20:12;;;;;;;28.27;6.23;;;21.60;99.90;;;;;;5007372;28;20188;-75
2023/05/28 03:22:39;;;;;;;35.93;6.40;;;21.60;99.90;;;;;;5011336;28;20575;-75
2023/05/28 03:25:07;;;;;;;35.47;6.23;;;21.60;99.90;;;;;;5011000;28;20736;-75
2023/05/28 03:27:33;;;;;;;34.57;6.17;;;21.60;99.90;;;;;;5009053;28;20274;-75
2023/05/28 03:29:59;;;;;;;33.03;5.63;;;21.60;99.90;;;;;;5010492;28;20668;-75
2023/05/28 03:32:25;;;;;;;26.57;6.20;;;21.60;99.90;;;;;;5015486;28;20548;-77
2023/05/28 03:34:51;;;;;;;20.00;4.17;;;21.60;99.90;;;;;;5011730;28;20270;-77
2023/05/28 03:37:18;;;;;;;23.40;4.60;;;21.70;99.90;;;;;;5008415;28;20200;-77
2023/05/28 03:39:44;;;;;;;15.07;4.53;;;21.70;99.90;;;;;;4995559;28;20666;-77
2023/05/28 03:42:10;;;;;;;18.03;4.30;;;21.80;99.90;;;;;;5011754;28;20287;-77
2023/05/28 03:44:37;;;;;;;32.53;5.13;;;21.90;99.90;;;;;;5012309;28;20197;-77
2023/05/28 03:47:03;;;;;;;27.52;4.25;;;21.90;99.90;;;;;;5008771;28;20193;-77
2023/05/28 03:49:29;;;;;;;19.33;4.00;;;22.00;99.90;;;;;;5012809;28;20905;-76
2023/05/28 03:51:57;;;;;;;20.50;4.77;;;22.00;99.90;;;;;;5014161;28;20250;-75
2023/05/28 03:54:23;;;;;;;19.67;4.00;;;22.00;99.90;;;;;;5006393;28;20199;-76
2023/05/28 03:56:49;;;;;;;19.43;4.27;;;22.00;99.90;;;;;;5028932;28;20726;-75
2023/05/28 03:59:16;;;;;;;22.07;3.97;;;22.00;99.90;;;;;;5014281;28;20953;-76
2023/05/28 04:01:42;;;;;;;18.97;3.73;;;22.00;99.90;;;;;;5012966;28;20216;-76
2023/05/28 04:04:08;;;;;;;20.63;5.03;;;22.10;99.90;;;;;;5038129;28;20207;-75
2023/05/28 04:06:36;;;;;;;24.17;4.33;;;22.20;99.90;;;;;;5029173;28;20717;-76
2023/05/28 04:09:02;;;;;;;21.37;4.60;;;22.20;99.90;;;;;;5014506;28;20185;-76
2023/05/28 04:11:30;;;;;;;30.13;5.20;;;22.20;99.90;;;;;;5013142;28;20270;-76
2023/05/28 04:13:56;;;;;;;19.53;4.83;;;22.30;99.90;;;;;;5038586;28;20192;-76
2023/05/28 04:16:23;;;;;;;24.07;4.93;;;22.30;99.90;;;;;;5011143;28;20193;-76
2023/05/28 04:18:50;;;;;;;30.97;4.57;;;22.30;99.90;;;;;;5010418;28;20203;-76
2023/05/28 04:21:17;;;;;;;22.55;4.20;;;22.30;99.90;;;;;;5012297;28;20950;-75
2023/05/28 04:23:43;;;;;;;27.40;4.80;;;22.30;99.90;;;;;;5016497;28;21003;-75
2023/05/28 04:26:09;;;;;;;28.73;4.75;;;22.30;99.90;;;;;;4998186;28;20189;-76
2023/05/28 04:28:36;;;;;;;34.15;4.93;;;22.30;99.90;;;;;;5011340;28;20242;-76
2023/05/28 04:31:04;;;;;;;27.35;5.25;;;22.30;99.90;;;;;;5007037;28;20196;-76
2023/05/28 04:33:31;;;;;;;18.93;4.60;;;22.30;99.90;;;;;;5009508;28;20223;-76
2023/05/28 04:35:59;;;;;;;21.93;4.57;;;22.30;99.90;;;;;;5014865;28;20283;-76
2023/05/28 04:38:29;;;;;;;26.05;4.85;;;22.40;99.90;;;;;;4999335;28;20184;-76
2023/05/28 04:40:55;;;;;;;34.67;5.77;;;22.40;99.90;;;;;;5023943;28;21452;-75
2023/05/28 04:43:21;;;;;;;41.67;5.90;;;22.40;99.90;;;;;;4993349;28;20297;-75
2023/05/28 04:45:48;;;;;;;30.97;5.93;;;22.50;99.90;;;;;;5010331;28;20657;-76
2023/05/28 04:48:14;;;;;;;30.30;6.18;;;22.60;99.90;;;;;;5006304;28;20217;-75
2023/05/28 04:50:42;;;;;;;28.27;5.35;;;22.60;99.90;;;;;;5012828;28;20283;-76
2023/05/28 04:53:08;;;;;;;31.33;5.73;;;22.60;99.90;;;;;;5012790;28;20185;-76
2023/05/28 04:55:34;;;;;;;32.67;5.43;;;22.70;99.90;;;;;;5008779;28;20559;-76
2023/05/28 04:58:01;;;;;;;46.03;6.28;;;22.70;99.90;;;;;;5018401;28;20179;-75
2023/05/28 05:00:28;;;;;;;35.97;5.85;;;22.70;99.90;;;;;;5009258;28;20234;-76
2023/05/28 05:02:54;;;;;;;48.10;7.43;;;22.70;99.90;;;;;;5038078;28;20207;-76
2023/05/28 05:05:21;;;;;;;61.13;9.85;;;22.70;99.90;;;;;;5011747;28;20306;-76
2023/05/28 05:07:47;;;;;;;53.10;8.70;;;22.50;99.90;;;;;;5011197;28;20183;-75
2023/05/28 05:10:14;;;;;;;53.03;8.98;;;22.30;99.90;;;;;;5011918;28;20295;-74
2023/05/28 05:12:40;;;;;;;64.07;11.03;;;22.40;99.90;;;;;;5011887;28;20193;-75
2023/05/28 05:15:08;;;;;;;59.03;9.83;;;22.40;99.90;;;;;;5011694;28;20323;-76
2023/05/28 05:17:34;;;;;;;59.57;11.00;;;22.40;99.90;;;;;;5017850;28;20958;-76
2023/05/28 05:20:06;;;;;;;55.83;9.38;;;22.40;99.90;;;;;;5008674;28;20654;-76
2023/05/28 05:22:33;;;;;;;35.57;8.27;;;22.40;99.90;;;;;;5011317;28;20207;-76
2023/05/28 05:24:59;;;;;;;55.57;8.13;;;22.40;99.90;;;;;;5025318;28;20192;-76
2023/05/28 05:27:26;;;;;;;43.87;7.90;;;22.40;99.90;;;;;;5010439;28;20196;-76
2023/05/28 05:29:52;;;;;;;57.65;9.18;;;22.30;99.90;;;;;;5008996;28;20188;-77
2023/05/28 05:32:19;;;;;;;56.87;9.43;;;22.40;99.90;;;;;;5015204;28;20188;-76
2023/05/28 05:34:45;;;;;;;51.55;9.52;;;22.40;99.90;;;;;;5014955;28;20269;-76
2023/05/28 05:37:11;;;;;;;56.55;10.05;;;22.40;99.90;;;;;;5012287;28;20250;-76
2023/05/28 05:39:37;;;;;;;78.90;11.07;;;22.40;99.90;;;;;;5007196;28;20268;-75
2023/05/28 05:42:05;;;;;;;50.30;10.77;;;22.40;99.90;;;;;;5016264;28;20263;-76
2023/05/28 05:44:31;;;;;;;65.67;10.93;;;22.30;99.90;;;;;;5008284;28;20180;-76
2023/05/28 05:46:57;;;;;;;63.80;10.83;;;22.30;99.90;;;;;;4991747;28;20287;-76
2023/05/28 05:49:23;;;;;;;75.03;10.67;;;22.20;99.90;;;;;;5007625;28;20192;-76
2023/05/28 05:51:50;;;;;;;66.82;10.88;;;22.10;99.90;;;;;;5020573;28;20192;-76
2023/05/28 05:54:16;;;;;;;62.33;9.40;;;22.10;99.90;;;;;;5007588;28;20682;-76
2023/05/28 05:56:43;;;;;;;60.03;10.40;;;22.20;99.90;;;;;;5013472;28;20797;-76
2023/05/28 05:59:09;;;;;;;67.30;10.05;;;22.20;99.90;;;;;;5008956;28;20210;-76
2023/05/28 06:01:35;;;;;;;68.03;9.83;;;22.10;99.90;;;;;;5007241;28;20234;-76
2023/05/28 06:04:02;;;;;;;60.25;10.07;;;22.10;99.90;;;;;;5014151;28;20195;-76
2023/05/28 06:06:28;;;;;;;72.33;11.10;;;22.10;99.90;;;;;;5010729;28;22173;-76
2023/05/28 06:08:54;;;;;;;71.30;10.77;;;22.10;99.90;;;;;;5006474;28;20603;-75
2023/05/28 06:11:22;;;;;;;65.87;9.47;;;22.00;99.90;;;;;;5005525;28;20195;-76
2023/05/28 06:13:50;;;;;;;64.13;9.80;;;21.90;99.90;;;;;;5012401;28;20224;-76
2023/05/28 06:16:17;;;;;;;61.13;9.70;;;21.90;99.90;;;;;;5009759;28;20184;-75
2023/05/28 06:18:44;;;;;;;64.50;10.37;;;21.90;99.90;;;;;;5015423;28;20192;-75
2023/05/28 06:21:10;;;;;;;49.53;8.97;;;21.90;99.90;;;;;;5026908;28;20216;-76
2023/05/28 06:23:36;;;;;;;46.47;7.40;;;21.80;99.90;;;;;;5012971;28;20568;-75
2023/05/28 06:26:03;;;;;;;38.03;8.07;;;21.80;99.90;;;;;;5015297;28;20298;-75
2023/05/28 06:28:29;;;;;;;42.87;7.53;;;21.80;99.90;;;;;;5010777;28;20193;-76
2023/05/28 06:30:56;;;;;;;37.57;7.43;;;21.80;99.90;;;;;;4996382;28;20272;-75
2023/05/28 06:33:22;;;;;;;36.20;7.13;;;21.80;99.90;;;;;;5007140;28;20184;-75
2023/05/28 06:35:48;;;;;;;39.37;7.27;;;21.80;99.90;;;;;;5010109;28;20196;-75
2023/05/28 06:38:15;;;;;;;35.87;6.97;;;21.90;99.90;;;;;;4989186;28;20555;-75
2023/05/28 06:40:41;;;;;;;38.50;6.47;;;22.00;99.90;;;;;;4997024;28;20199;-75
2023/05/28 06:43:07;;;;;;;31.57;5.73;;;22.00;99.90;;;;;;5007862;28;20201;-75
2023/05/28 06:45:34;;;;;;;27.33;5.73;;;22.10;99.90;;;;;;5036048;28;20537;-75
2023/05/28 06:48:00;;;;;;;31.90;6.23;;;22.20;99.90;;;;;;5013699;28;20192;-75
2023/05/28 06:50:26;;;;;;;34.83;5.50;;;22.30;99.90;;;;;;5012523;28;20196;-75
2023/05/28 06:52:53;;;;;;;33.90;5.77;;;22.40;99.90;;;;;;4998486;28;20651;-76
2023/05/28 06:55:19;;;;;;;34.10;6.10;;;22.50;99.90;;;;;;5019421;28;20200;-75
2023/05/28 06:57:46;;;;;;;36.73;6.30;;;22.50;99.90;;;;;;5012070;28;20188;-76
2023/05/28 07:00:16;;;;;;;29.33;5.97;;;22.60;99.90;;;;;;5015031;28;20419;-76
2023/05/28 07:02:46;;;;;;;42.47;6.75;;;22.70;99.90;;;;;;5019217;28;20657;-75
2023/05/28 07:05:12;;;;;;;37.83;6.70;;;22.70;99.90;;;;;;5025099;28;20259;-75
2023/05/28 07:07:39;;;;;;;39.42;6.97;;;22.70;99.90;;;;;;5015416;28;20197;-75
2023/05/28 07:10:06;;;;;;;38.10;5.90;;;22.80;99.90;;;;;;5018107;28;20207;-76
2023/05/28 07:12:32;;;;;;;35.50;5.50;;;22.90;99.90;;;;;;5006838;28;20185;-75
2023/05/28 07:14:58;;;;;;;39.30;7.93;;;23.00;99.90;;;;;;5010045;28;20193;-76
2023/05/28 07:17:25;;;;;;;29.30;5.75;;;23.00;99.90;;;;;;5015979;28;20318;-76
2023/05/28 07:19:51;;;;;;;30.93;6.07;;;23.00;99.90;;;;;;4995785;28;20189;-76
2023/05/28 07:22:17;;;;;;;36.60;6.53;;;23.10;99.90;;;;;;5012557;28;20685;-76
2023/05/28 07:24:43;;;;;;;25.55;5.97;;;23.00;99.90;;;;;;5020285;28;20192;-76
2023/05/28 07:27:10;;;;;;;36.20;6.45;;;23.00;99.90;;;;;;5017291;28;20278;-75
2023/05/28 07:29:36;;;;;;;31.27;6.40;;;23.00;99.90;;;;;;5015636;28;20195;-76
2023/05/28 07:32:03;;;;;;;38.92;7.05;;;23.00;99.90;;;;;;5010968;28;20649;-76
2023/05/28 07:34:29;;;;;;;35.78;7.25;;;23.20;99.90;;;;;;5016683;28;20194;-75
2023/05/28 07:36:55;;;;;;;42.70;6.88;;;23.30;99.90;;;;;;4998451;28;20185;-76
2023/05/28 07:39:22;;;;;;;53.45;6.75;;;23.40;99.90;;;;;;5013315;28;20250;-77
2023/05/28 07:41:48;;;;;;;35.88;5.88;;;23.50;99.90;;;;;;5009027;28;20205;-77
2023/05/28 07:44:17;;;;;;;51.55;7.28;;;23.60;99.90;;;;;;5028572;28;20205;-77
2023/05/28 07:46:43;;;;;;;44.80;6.45;;;23.80;99.90;;;;;;5010181;28;20191;-77
2023/05/28 07:49:09;;;;;;;41.65;7.03;;;23.90;99.90;;;;;;5020003;28;20216;-77
2023/05/28 07:51:36;;;;;;;34.03;6.55;;;24.10;99.90;;;;;;5013236;28;20935;-77
2023/05/28 07:54:02;;;;;;;54.95;7.28;;;24.30;99.90;;;;;;5000925;28;20192;-77
2023/05/28 07:56:29;;;;;;;46.72;7.68;;;24.50;99.90;;;;;;5002174;28;20188;-77
2023/05/28 07:58:56;;;;;;;56.50;7.07;;;24.60;99.90;;;;;;5016531;28;20193;-76
2023/05/28 08:01:23;;;;;;;36.85;6.03;;;24.90;99.90;;;;;;5029369;28;20242;-77
2023/05/28 08:03:53;;;;;;;47.90;7.40;;;24.90;99.90;;;;;;5020589;28;20599;-75
2023/05/28 08:06:21;;;;;;;46.22;7.70;;;25.00;99.90;;;;;;5013475;28;20192;-75
2023/05/28 08:08:47;;;;;;;45.92;7.25;;;25.10;99.90;;;;;;5012785;28;20695;-76
2023/05/28 08:11:14;;;;;;;46.05;7.03;;;25.20;99.90;;;;;;5020156;28;20194;-76
2023/05/28 08:13:41;;;;;;;37.53;6.93;;;25.40;99.90;;;;;;5022122;28;20192;-77
2023/05/28 08:16:11;;;;;;;51.70;8.02;;;25.40;99.90;;;;;;5043106;28;20227;-78
2023/05/28 08:18:39;;;;;;;47.72;7.47;;;25.30;99.90;;;;;;5018225;28;20202;-78
2023/05/28 08:21:07;;;;;;;43.78;7.40;;;25.20;99.90;;;;;;5027440;28;22084;-78
2023/05/28 08:23:34;;;;;;;56.40;8.10;;;25.10;99.90;;;;;;5043474;28;20659;-78
2023/05/28 08:26:02;;;;;;;55.92;7.47;;;25.00;99.90;;;;;;5014788;28;21016;-77
2023/05/28 08:28:29;;;;;;;48.50;7.50;;;25.10;99.90;;;;;;5025518;28;20275;-79
2023/05/28 08:30:56;;;;;;;46.25;7.70;;;25.20;99.90;;;;;;5014295;28;20203;-78
2023/05/28 08:33:26;;;;;;;45.22;7.15;;;25.30;99.90;;;;;;5033741;28;20189;-77
2023/05/28 08:35:53;;;;;;;43.42;7.28;;;25.20;99.90;;;;;;5047837;28;20444;-77
2023/05/28 08:38:19;;;;;;;61.65;8.15;;;25.20;99.90;;;;;;5020130;28;20309;-77
2023/05/28 08:40:53;;;;;;;46.25;7.57;;;25.40;99.90;;;;;;5006226;28;20189;-77
2023/05/28 08:43:20;;;;;;;49.53;7.88;;;25.60;99.90;;;;;;5016014;28;20270;-77
2023/05/28 08:45:46;;;;;;;58.78;8.52;;;25.80;99.90;;;;;;5022735;28;20230;-77
2023/05/28 08:48:15;;;;;;;48.40;7.78;;;25.90;99.90;;;;;;5017715;28;20208;-77
2023/05/28 08:50:48;;;;;;;55.97;8.80;;;26.00;99.90;;;;;;5027117;28;20181;-77
2023/05/28 08:53:21;;;;;;;55.50;7.82;;;26.20;99.90;;;;;;5012480;28;20276;-77
2023/05/28 08:55:48;;;;;;;60.38;8.63;;;26.40;99.90;;;;;;5011078;28;20188;-77
2023/05/28 08:58:18;;;;;;;66.65;9.15;;;26.60;99.90;;;;;;5022139;28;20234;-78
2023/05/28 09:00:45;;;;;;;80.90;10.18;;;26.70;99.90;;;;;;5013647;28;20191;-78
2023/05/28 09:03:11;;;;;;;70.88;10.40;;;26.80;99.90;;;;;;5012762;28;20621;-78
2023/05/28 09:05:38;;;;;;;77.63;10.18;;;26.90;99.90;;;;;;5012824;28;20308;-78
2023/05/28 09:08:12;;;;;;;59.17;9.07;;;26.90;99.90;;;;;;5013767;28;20242;-78
2023/05/28 09:10:40;;;;;;;85.25;10.15;;;26.90;99.90;;;;;;5014825;28;20265;-77
2023/05/28 09:13:07;;;;;;;69.05;10.25;;;26.90;99.90;;;;;;5035956;28;20193;-78
2023/05/28 09:15:41;;;;;;;66.57;9.23;;;26.80;99.90;;;;;;5013744;28;20624;-75
2023/05/28 09:18:07;;;;;;;75.75;10.45;;;26.70;99.90;;;;;;5033411;28;20610;-75
2023/05/28 09:20:34;;;;;;;64.22;9.02;;;26.80;99.90;;;;;;4996310;28;20216;-75
2023/05/28 09:23:04;;;;;;;57.83;9.68;;;26.90;99.90;;;;;;5011301;28;20646;-75
2023/05/28 09:25:38;;;;;;;60.20;9.32;;;27.00;99.90;;;;;;5008930;28;20275;-75
2023/05/28 09:28:04;;;;;;;60.35;9.20;;;27.20;99.90;;;;;;5011072;28;20989;-75
2023/05/28 09:30:35;;;;;;;65.03;9.50;;;27.30;99.90;;;;;;5013691;28;20180;-75
2023/05/28 09:33:09;;;;;;;75.85;10.13;;;27.20;99.90;;;;;;5009603;28;20647;-75
2023/05/28 09:35:36;;;;;;;72.50;9.48;;;27.20;99.90;;;;;;5008682;28;20270;-75
2023/05/28 09:38:11;;;;;;;48.55;7.53;;;27.10;99.90;;;;;;5008917;28;20188;-75
2023/05/28 09:40:41;;;;;;;54.75;9.25;;;27.20;99.90;;;;;;5005187;28;20218;-75
2023/05/28 09:43:10;;;;;;;60.90;9.10;;;27.60;99.90;;;;;;5013859;28;22563;-74
2023/05/28 09:45:37;;;;;;;67.93;8.93;;;27.60;99.90;;;;;;5013048;28;20183;-75
2023/05/28 09:48:04;;;;;;;90.55;9.18;;;27.50;99.90;;;;;;5021337;28;20192;-75
2023/05/28 09:50:30;;;;;;;66.57;8.52;;;27.40;99.90;;;;;;5012112;28;20741;-75
2023/05/28 09:52:59;;;;;;;67.65;8.25;;;27.40;99.90;;;;;;5012821;28;20694;-75
2023/05/28 09:55:30;;;;;;;69.30;8.93;;;27.30;99.90;;;;;;5011927;28;20192;-75
2023/05/28 09:58:03;;;;;;;82.47;10.93;;;27.30;99.90;;;;;;5024427;28;21284;-75
2023/05/28 10:00:54;;;;;;;64.70;8.85;;;27.20;99.90;;;;;;5010597;28;20294;-75
2023/05/28 10:03:57;;;;;;;61.50;9.40;;;27.10;99.90;;;;;;5011952;28;20196;-75
2023/05/28 10:06:25;;;;;;;71.47;10.30;;;27.10;99.90;;;;;;4985630;28;20203;-75
2023/05/28 10:08:54;;;;;;;77.05;9.02;;;27.00;99.90;;;;;;5013111;28;20208;-75
2023/05/28 10:11:29;;;;;;;66.60;9.30;;;27.00;99.90;;;;;;5011096;28;20278;-75
2023/05/28 10:13:57;;;;;;;75.05;9.68;;;27.10;99.90;;;;;;5035824;28;20189;-75
2023/05/28 10:16:26;;;;;;;67.85;9.93;;;27.20;99.90;;;;;;5008804;28;20189;-75
2023/05/28 10:18:55;;;;;;;79.07;10.68;;;27.10;99.90;;;;;;5005854;28;20613;-75
2023/05/28 10:21:22;;;;;;;93.75;9.90;;;27.00;99.90;;;;;;5006227;28;20216;-75
2023/05/28 10:23:49;;;;;;;83.47;9.85;;;27.00;99.90;;;;;;4998785;28;20912;-75
2023/05/28 10:26:15;;;;;;;83.35;9.65;;;26.80;99.90;;;;;;5038760;28;20184;-75
2023/05/28 10:28:43;;;;;;;74.53;9.73;;;26.80;99.90;;;;;;5008693;28;20632;-75
2023/05/28 10:31:10;;;;;;;79.78;9.38;;;26.70;99.90;;;;;;5016643;28;20607;-75
2023/05/28 10:33:44;;;;;;;53.40;8.52;;;26.70;99.90;;;;;;5044232;28;20189;-75
2023/05/28 10:36:15;;;;;;;62.97;8.77;;;26.70;99.90;;;;;;5040222;28;20185;-75
2023/05/28 10:38:43;;;;;;;49.78;8.07;;;26.60;99.90;;;;;;5013766;28;20188;-75
2023/05/28 10:41:10;;;;;;;51.08;8.13;;;26.50;99.90;;;;;;5014314;28;20409;-75
2023/05/28 10:43:40;;;;;;;44.30;7.50;;;26.40;99.90;;;;;;5040543;28;20180;-74
2023/05/28 10:46:11;;;;;;;37.55;6.25;;;26.20;99.90;;;;;;4996835;28;20238;-75
2023/05/28 10:48:42;;;;;;;39.65;5.75;;;26.30;99.90;;;;;;5009808;28;20931;-76
2023/05/28 10:51:08;;;;;;;44.33;6.07;;;26.40;99.90;;;;;;5012077;28;20203;-75
2023/05/28 10:53:35;;;;;;;44.00;7.18;;;26.70;99.90;;;;;;5012812;28;20672;-76
2023/05/28 10:56:02;;;;;;;35.90;6.25;;;26.90;99.90;;;;;;5040911;28;20296;-75
2023/05/28 10:58:38;;;;;;;40.78;5.88;;;27.00;99.90;;;;;;5016438;28;20188;-75
2023/05/28 11:01:24;;;;;;;44.78;6.60;;;27.00;99.90;;;;;;4999892;28;20187;-75
2023/05/28 11:03:55;;;;;;;50.60;5.90;;;26.90;99.90;;;;;;5013026;28;20192;-75
2023/05/28 11:06:26;;;;;;;39.00;5.40;;;27.00;99.90;;;;;;5011645;28;20195;-75
2023/05/28 11:08:52;;;;;;;62.05;7.25;;;26.90;99.90;;;;;;5015852;28;20294;-75
2023/05/28 11:11:19;;;;;;;50.72;6.75;;;27.10;99.90;;;;;;5010552;28;20729;-75
2023/05/28 11:13:47;;;;;;;52.55;7.20;;;27.20;99.90;;;;;;5014025;28;20193;-75
2023/05/28 11:16:17;;;;;;;52.50;7.50;;;27.10;99.90;;;;;;5010431;28;24485;-75
2023/05/28 11:19:09;;;;;;;39.55;6.10;;;27.10;99.90;;;;;;5010204;28;20215;-75
2023/05/28 11:21:56;;;;;;;43.30;7.15;;;27.20;99.90;;;;;;5009715;28;20217;-76
2023/05/28 11:24:23;;;;;;;46.75;6.65;;;27.20;99.90;;;;;;5011481;28;20199;-76
2023/05/28 11:26:54;;;;;;;64.20;7.50;;;27.10;99.90;;;;;;5017365;28;20558;-75
2023/05/28 11:29:21;;;;;;;48.85;7.28;;;27.00;99.90;;;;;;5010021;28;20685;-75
2023/05/28 11:31:48;;;;;;;50.45;7.15;;;27.00;99.90;;;;;;5040037;28;20242;-75
2023/05/28 11:34:20;;;;;;;60.63;8.98;;;27.00;99.90;;;;;;5013473;28;20202;-75
2023/05/28 11:36:47;;;;;;;71.80;9.20;;;27.00;99.90;;;;;;5012498;28;21153;-76
2023/05/28 11:39:13;;;;;;;66.30;9.25;;;27.00;99.90;;;;;;5034556;28;20216;-76
2023/05/28 11:41:40;;;;;;;76.38;9.95;;;27.00;99.90;;;;;;5014840;28;20996;-76
2023/05/28 11:44:23;;;;;;;93.95;10.63;;;27.00;99.90;;;;;;5004284;28;20206;-76
2023/05/28 11:46:56;;;;;;;94.60;9.73;;;26.90;99.90;;;;;;4974954;28;20225;-76
2023/05/28 11:49:23;;;;;;;70.82;10.05;;;26.80;99.90;;;;;;4959325;28;20214;-75
2023/05/28 11:51:53;;;;;;;83.88;10.45;;;26.70;99.90;;;;;;4953437;28;20594;-75
2023/05/28 11:54:19;;;;;;;104.30;10.68;;;26.60;99.90;;;;;;4980286;28;20637;-76
2023/05/28 11:56:50;;;;;;;94.75;10.82;;;26.70;99.90;;;;;;4941387;28;20190;-76
2023/05/28 11:59:17;;;;;;;100.72;13.32;;;26.70;99.90;;;;;;4948933;28;20419;-75
2023/05/28 12:01:44;;;;;;;98.00;11.75;;;26.60;99.90;;;;;;4960234;28;20217;-75
2023/05/28 12:04:10;;;;;;;82.35;12.15;;;26.60;99.90;;;;;;4956772;28;20199;-75
2023/05/28 12:06:55;;;;;;;84.75;9.77;;;26.60;99.90;;;;;;4957708;28;20213;-75
2023/05/28 12:09:22;;;;;;;84.03;11.13;;;26.60;99.90;;;;;;4959626;28;20281;-75
2023/05/28 12:12:11;;;;;;;104.68;11.82;;;26.70;99.90;;;;;;4958838;28;20202;-75
2023/05/28 12:14:38;;;;;;;84.55;10.98;;;26.80;99.90;;;;;;4955538;28;20225;-75
2023/05/28 12:17:13;;;;;;;86.57;11.07;;;26.80;99.90;;;;;;4956525;28;20208;-75
2023/05/28 12:19:39;;;;;;;107.43;13.20;;;26.90;99.90;;;;;;4954344;28;20209;-75
2023/05/28 12:22:15;;;;;;;92.15;12.73;;;26.90;99.90;;;;;;4951295;28;20218;-75
2023/05/28 12:24:53;;;;;;;78.85;12.10;;;26.90;99.90;;;;;;4981003;28;20256;-75
2023/05/28 12:27:20;;;;;;;71.40;10.00;;;27.00;99.90;;;;;;4983474;28;20766;-75
2023/05/28 12:29:46;;;;;;;95.25;12.75;;;27.00;99.90;;;;;;4953298;28;20246;-74
2023/05/28 12:32:13;;;;;;;60.88;10.63;;;26.90;99.90;;;;;;4956513;28;20190;-75
2023/05/28 12:34:39;;;;;;;43.67;9.27;;;26.90;99.90;;;;;;4956075;28;20979;-75
2023/05/28 12:37:07;;;;;;;57.10;9.70;;;26.80;99.90;;;;;;4954462;28;20284;-75
2023/05/28 12:39:35;;;;;;;91.00;11.57;;;26.70;99.90;;;;;;4953381;28;20256;-75
2023/05/28 12:42:03;;;;;;;103.30;12.55;;;26.50;99.90;;;;;;4967800;28;20217;-75
2023/05/28 12:44:30;;;;;;;90.40;12.13;;;26.50;99.90;;;;;;4949488;28;20202;-75